Thunderstorms From: 26-05-2018 09:00 Until: 27-05-2018 05:00 warning for: Thunderstorms Level: Yellow info button

Although rather usual in this region, locally or potentially dangerous phenomena are expected. (such as local winds, summer thunderstorms, rising streams or high waves) Be aware and pay attention to the latest weather updates, especially if you carry out activities exposed to weather or close to a stream or shoreline. 


Meteo18 Weather Cam more information Meteo18 Weather Cam


warning for Thunderstorms more information blitzortung!


Rain radar more information rain snow radar


Visit our other weather sites:

Template documentation
and downloads

And another site



Weather Underground History page Text

Daily Summary for February 27, 2017 Units:  Both    English   Metric
« Previous Day
Next Day »
Daily Weekly Monthly Yearly Custom
  High: Low: Average:
Temperature: TemperatureC °F /  -17.8 °C 5.5 °F /  -14.7 °C 9.7 °F /  -12.4 °C
Dew Point: DewpointC °F /  -17.8 °C 3.3 °F /  -15.9 °C 6.7 °F /  -14.1 °C
Humidity: Humidity % 66 % 82 %
Wind Speed: WindSpeedKMH mph /  0 km/h - 19.2 mph /  30.9 km/h
Wind Gust: WindSpeedGustKMH mph /  0 km/h - -
Wind:- - SW
Pressure: PressurehPa in /  0 hPa 1000.2 in /  33866.8 hPa -
Precipitation: 6.3 in /  160.02 mm    
Historical Graphs
 
 
Tabular Data for February 27, 2017
Time Temperature Dew Point Pressure Wind Wind Speed Wind Gust Humidity Rainfall Rate (Hourly)
TemperatureC °F /  -17.8 °C DewpointC °F /  -17.8 °C PressurehPa in /  0 hPa Calm     Humidity % HourlyPrecipMM in /  0 mm
00:02 9.4 °F /  -12.6 °C 7.7 °F /  -13.5 °C 1014.8 in /  34361.1 hPa SSW 11.3 mph /  18.2 km/h 14.5 mph /  23.3 km/h 89 % 0.0 in /  0 mm
00:12 9.4 °F /  -12.6 °C 7.7 °F /  -13.5 °C 1014.8 in /  34361.1 hPa SSW 8.0 mph /  12.9 km/h 14.5 mph /  23.3 km/h 89 % 0.0 in /  0 mm
00:17 9.4 °F /  -12.6 °C 7.7 °F /  -13.5 °C 1014.8 in /  34361.1 hPa SW 6.4 mph /  10.3 km/h 16.1 mph /  25.9 km/h 89 % 0.0 in /  0 mm
00:22 9.4 °F /  -12.6 °C 7.7 °F /  -13.5 °C 1014.8 in /  34361.1 hPa SSW 6.4 mph /  10.3 km/h 16.1 mph /  25.9 km/h 89 % 0.0 in /  0 mm
00:32 9.4 °F /  -12.6 °C 7.7 °F /  -13.5 °C 1014.8 in /  34361.1 hPa SW 12.9 mph /  20.8 km/h 14.5 mph /  23.3 km/h 89 % 0.0 in /  0 mm
00:37 9.5 °F /  -12.5 °C 7.6 °F /  -13.6 °C 1014.8 in /  34361.1 hPa SSW 8.0 mph /  12.9 km/h 14.5 mph /  23.3 km/h 88 % 0.0 in /  0 mm
00:42 9.6 °F /  -12.4 °C 7.7 °F /  -13.5 °C 1014.8 in /  34361.1 hPa SW 6.4 mph /  10.3 km/h 16.1 mph /  25.9 km/h 88 % 0.0 in /  0 mm
00:47 9.6 °F /  -12.4 °C 7.7 °F /  -13.5 °C 1014.4 in /  34347.6 hPa SSW 11.3 mph /  18.2 km/h 16.1 mph /  25.9 km/h 88 % 0.0 in /  0 mm
00:52 9.7 °F /  -12.4 °C 7.8 °F /  -13.4 °C 1014.4 in /  34347.6 hPa SW 8.0 mph /  12.9 km/h 19.3 mph /  31.1 km/h 88 % 0.0 in /  0 mm
00:57 9.6 °F /  -12.4 °C 7.7 °F /  -13.5 °C 1014.4 in /  34347.6 hPa SSW 9.7 mph /  15.6 km/h 19.3 mph /  31.1 km/h 88 % 0.0 in /  0 mm
01:02 9.6 °F /  -12.4 °C 7.7 °F /  -13.5 °C 1014.4 in /  34347.6 hPa SW 6.4 mph /  10.3 km/h 17.7 mph /  28.5 km/h 88 % 0.0 in /  0 mm
01:12 9.6 °F /  -12.4 °C 7.7 °F /  -13.5 °C 1014.4 in /  34347.6 hPa SW 11.3 mph /  18.2 km/h 16.1 mph /  25.9 km/h 88 % 0.0 in /  0 mm
01:17 9.6 °F /  -12.4 °C 7.7 °F /  -13.5 °C 1014.4 in /  34347.6 hPa SSW 9.7 mph /  15.6 km/h 16.1 mph /  25.9 km/h 88 % 0.0 in /  0 mm
01:22 9.5 °F /  -12.5 °C 7.6 °F /  -13.6 °C 1014.4 in /  34347.6 hPa SSW 11.3 mph /  18.2 km/h 16.1 mph /  25.9 km/h 88 % 0.0 in /  0 mm
01:32 9.5 °F /  -12.5 °C 7.6 °F /  -13.6 °C 1014.1 in /  34337.4 hPa SSW 9.7 mph /  15.6 km/h 16.1 mph /  25.9 km/h 88 % 0.0 in /  0 mm
01:37 9.5 °F /  -12.5 °C 7.6 °F /  -13.6 °C 1014.1 in /  34337.4 hPa SW 6.4 mph /  10.3 km/h 19.3 mph /  31.1 km/h 88 % 0.0 in /  0 mm
01:42 9.5 °F /  -12.5 °C 7.6 °F /  -13.6 °C 1014.1 in /  34337.4 hPa SW 9.7 mph /  15.6 km/h 19.3 mph /  31.1 km/h 88 % 0.0 in /  0 mm
01:47 9.5 °F /  -12.5 °C 7.6 °F /  -13.6 °C 1014.1 in /  34337.4 hPa SSW 8.0 mph /  12.9 km/h 19.3 mph /  31.1 km/h 88 % 0.0 in /  0 mm
01:52 9.5 °F /  -12.5 °C 7.6 °F /  -13.6 °C 1013.8 in /  34327.3 hPa South 8.0 mph /  12.9 km/h 20.9 mph /  33.6 km/h 88 % 0.0 in /  0 mm
01:57 9.4 °F /  -12.6 °C 7.7 °F /  -13.5 °C 1014.1 in /  34337.4 hPa SSW 6.4 mph /  10.3 km/h 20.9 mph /  33.6 km/h 89 % 0.0 in /  0 mm
02:02 9.4 °F /  -12.6 °C 7.7 °F /  -13.5 °C 1013.8 in /  34327.3 hPa SW 14.5 mph /  23.3 km/h 20.9 mph /  33.6 km/h 89 % 0.0 in /  0 mm
02:12 9.3 °F /  -12.6 °C 7.6 °F /  -13.6 °C 1013.8 in /  34327.3 hPa SSW 4.8 mph /  7.7 km/h 16.1 mph /  25.9 km/h 89 % 0.0 in /  0 mm
02:17 9.3 °F /  -12.6 °C 7.6 °F /  -13.6 °C 1013.8 in /  34327.3 hPa SSW 17.7 mph /  28.5 km/h 17.7 mph /  28.5 km/h 89 % 0.0 in /  0 mm
02:22 9.3 °F /  -12.6 °C 7.6 °F /  -13.6 °C 1013.8 in /  34327.3 hPa SSW 6.4 mph /  10.3 km/h 16.1 mph /  25.9 km/h 89 % 0.0 in /  0 mm
02:32 9.3 °F /  -12.6 °C 7.4 °F /  -13.7 °C 1013.4 in /  34313.7 hPa SW 17.7 mph /  28.5 km/h 19.3 mph /  31.1 km/h 88 % 0.0 in /  0 mm
02:42 9.4 °F /  -12.6 °C 7.5 °F /  -13.6 °C 1013.4 in /  34313.7 hPa South 12.9 mph /  20.8 km/h 20.9 mph /  33.6 km/h 88 % 0.0 in /  0 mm
02:47 9.4 °F /  -12.6 °C 7.3 °F /  -13.7 °C 1013.4 in /  34313.7 hPa South 8.0 mph /  12.9 km/h 20.9 mph /  33.6 km/h 87 % 0.0 in /  0 mm
02:52 9.4 °F /  -12.6 °C 7.3 °F /  -13.7 °C 1013.1 in /  34303.6 hPa SSW 11.3 mph /  18.2 km/h 20.9 mph /  33.6 km/h 87 % 0.0 in /  0 mm
03:02 9.4 °F /  -12.6 °C 7.5 °F /  -13.6 °C 1013.1 in /  34303.6 hPa SW 8.0 mph /  12.9 km/h 20.9 mph /  33.6 km/h 88 % 0.0 in /  0 mm
03:12 9.3 °F /  -12.6 °C 7.4 °F /  -13.7 °C 1012.8 in /  34293.4 hPa SW 6.4 mph /  10.3 km/h 16.1 mph /  25.9 km/h 88 % 0.0 in /  0 mm
03:17 9.3 °F /  -12.6 °C 7.4 °F /  -13.7 °C 1012.8 in /  34293.4 hPa SW 11.3 mph /  18.2 km/h 16.1 mph /  25.9 km/h 88 % 0.0 in /  0 mm
03:22 9.3 °F /  -12.6 °C 7.4 °F /  -13.7 °C 1012.8 in /  34293.4 hPa SSW 12.9 mph /  20.8 km/h 16.1 mph /  25.9 km/h 88 % 0.0 in /  0 mm
03:27 9.3 °F /  -12.6 °C 7.4 °F /  -13.7 °C 1012.8 in /  34293.4 hPa SSW 9.7 mph /  15.6 km/h 17.7 mph /  28.5 km/h 88 % 0.0 in /  0 mm
03:32 9.4 °F /  -12.6 °C 7.5 °F /  -13.6 °C 1012.4 in /  34279.9 hPa SW 8.0 mph /  12.9 km/h 17.7 mph /  28.5 km/h 88 % 0.0 in /  0 mm
03:42 9.4 °F /  -12.6 °C 7.3 °F /  -13.7 °C 1012.4 in /  34279.9 hPa SW 12.9 mph /  20.8 km/h 22.5 mph /  36.2 km/h 87 % 0.0 in /  0 mm
03:47 9.3 °F /  -12.6 °C 7.2 °F /  -13.8 °C 1012.1 in /  34269.7 hPa SSW 14.5 mph /  23.3 km/h 22.5 mph /  36.2 km/h 87 % 0.0 in /  0 mm
03:52 9.3 °F /  -12.6 °C 7.4 °F /  -13.7 °C 1012.1 in /  34269.7 hPa SSW 9.7 mph /  15.6 km/h 22.5 mph /  36.2 km/h 88 % 0.0 in /  0 mm
03:57 9.3 °F /  -12.6 °C 7.4 °F /  -13.7 °C 1012.1 in /  34269.7 hPa SW 11.3 mph /  18.2 km/h 22.5 mph /  36.2 km/h 88 % 0.0 in /  0 mm
04:02 9.3 °F /  -12.6 °C 7.4 °F /  -13.7 °C 1012.1 in /  34269.7 hPa SSW 12.9 mph /  20.8 km/h 20.9 mph /  33.6 km/h 88 % 0.0 in /  0 mm
04:12 9.3 °F /  -12.6 °C 7.4 °F /  -13.7 °C 1011.7 in /  34256.2 hPa SSW 17.7 mph /  28.5 km/h 17.7 mph /  28.5 km/h 88 % 0.0 in /  0 mm
04:17 9.2 °F /  -12.7 °C 7.3 °F /  -13.7 °C 1011.7 in /  34256.2 hPa SSW 19.3 mph /  31.1 km/h 20.9 mph /  33.6 km/h 88 % 0.0 in /  0 mm
04:22 9.3 °F /  -12.6 °C 7.4 °F /  -13.7 °C 1011.7 in /  34256.2 hPa SW 9.7 mph /  15.6 km/h 20.9 mph /  33.6 km/h 88 % 0.0 in /  0 mm
04:27 9.2 °F /  -12.7 °C 7.3 °F /  -13.7 °C 1011.7 in /  34256.2 hPa SSW 12.9 mph /  20.8 km/h 24.1 mph /  38.8 km/h 88 % 0.0 in /  0 mm
04:32 9.2 °F /  -12.7 °C 7.3 °F /  -13.7 °C 1011.7 in /  34256.2 hPa SSW 16.1 mph /  25.9 km/h 24.1 mph /  38.8 km/h 88 % 0.0 in /  0 mm
04:42 9.3 °F /  -12.6 °C 7.4 °F /  -13.7 °C 1011.7 in /  34256.2 hPa SSW 9.7 mph /  15.6 km/h 20.9 mph /  33.6 km/h 88 % 0.0 in /  0 mm
04:47 9.3 °F /  -12.6 °C 7.2 °F /  -13.8 °C 1011.7 in /  34256.2 hPa SSW 16.1 mph /  25.9 km/h 20.9 mph /  33.6 km/h 87 % 0.0 in /  0 mm
04:52 9.3 °F /  -12.6 °C 7.2 °F /  -13.8 °C 1011.4 in /  34246 hPa South 12.9 mph /  20.8 km/h 22.5 mph /  36.2 km/h 87 % 0.0 in /  0 mm
04:57 9.4 °F /  -12.6 °C 7.2 °F /  -13.8 °C 1011.4 in /  34246 hPa South 11.3 mph /  18.2 km/h 25.7 mph /  41.4 km/h 86 % 0.0 in /  0 mm
05:02 9.5 °F /  -12.5 °C 7.3 °F /  -13.7 °C 1011.4 in /  34246 hPa SW 12.9 mph /  20.8 km/h 25.7 mph /  41.4 km/h 86 % 0.0 in /  0 mm
05:12 9.6 °F /  -12.4 °C 7.2 °F /  -13.8 °C 1011.4 in /  34246 hPa SW 14.5 mph /  23.3 km/h 27.4 mph /  44.1 km/h 85 % 0.0 in /  0 mm
05:17 9.6 °F /  -12.4 °C 7.2 °F /  -13.8 °C 1011.4 in /  34246 hPa South 8.0 mph /  12.9 km/h 27.4 mph /  44.1 km/h 85 % 0.0 in /  0 mm
05:22 9.4 °F /  -12.6 °C 7.2 °F /  -13.8 °C 1011.1 in /  34235.8 hPa SSW 12.9 mph /  20.8 km/h 27.4 mph /  44.1 km/h 86 % 0.0 in /  0 mm
05:27 9.4 °F /  -12.6 °C 7.2 °F /  -13.8 °C 1011.1 in /  34235.8 hPa South 14.5 mph /  23.3 km/h 24.1 mph /  38.8 km/h 86 % 0.0 in /  0 mm
05:32 9.3 °F /  -12.6 °C 7.1 °F /  -13.8 °C 1011.1 in /  34235.8 hPa South 16.1 mph /  25.9 km/h 24.1 mph /  38.8 km/h 86 % 0.0 in /  0 mm
05:37 9.3 °F /  -12.6 °C 7.1 °F /  -13.8 °C 1011.1 in /  34235.8 hPa SSW 22.5 mph /  36.2 km/h 24.1 mph /  38.8 km/h 86 % 0.0 in /  0 mm
05:42 9.3 °F /  -12.6 °C 7.1 °F /  -13.8 °C 1011.1 in /  34235.8 hPa SW 17.7 mph /  28.5 km/h 24.1 mph /  38.8 km/h 86 % 0.0 in /  0 mm
05:52 9.3 °F /  -12.6 °C 7.1 °F /  -13.8 °C 1011.1 in /  34235.8 hPa SSW 16.1 mph /  25.9 km/h 25.7 mph /  41.4 km/h 86 % 0.0 in /  0 mm
05:57 9.3 °F /  -12.6 °C 7.1 °F /  -13.8 °C 1011.1 in /  34235.8 hPa SSW 8.0 mph /  12.9 km/h 27.4 mph /  44.1 km/h 86 % 0.0 in /  0 mm
06:02 9.3 °F /  -12.6 °C 7.1 °F /  -13.8 °C 1011.1 in /  34235.8 hPa SW 11.3 mph /  18.2 km/h 27.4 mph /  44.1 km/h 86 % 0.0 in /  0 mm
06:12 9.3 °F /  -12.6 °C 7.1 °F /  -13.8 °C 1010.4 in /  34212.1 hPa SSW 11.3 mph /  18.2 km/h 27.4 mph /  44.1 km/h 86 % 0.0 in /  0 mm
06:17 9.3 °F /  -12.6 °C 6.9 °F /  -13.9 °C 1010.4 in /  34212.1 hPa SW 20.9 mph /  33.6 km/h 24.1 mph /  38.8 km/h 85 % 0.0 in /  0 mm
06:22 9.4 °F /  -12.6 °C 7.0 °F /  -13.9 °C 1010.4 in /  34212.1 hPa SSW 11.3 mph /  18.2 km/h 24.1 mph /  38.8 km/h 85 % 0.0 in /  0 mm
06:27 9.3 °F /  -12.6 °C 6.9 °F /  -13.9 °C 1010.4 in /  34212.1 hPa SSW 19.3 mph /  31.1 km/h 24.1 mph /  38.8 km/h 85 % 0.0 in /  0 mm
06:32 9.3 °F /  -12.6 °C 6.9 °F /  -13.9 °C 1010.4 in /  34212.1 hPa South 8.0 mph /  12.9 km/h 24.1 mph /  38.8 km/h 85 % 0.0 in /  0 mm
06:42 9.3 °F /  -12.6 °C 6.9 °F /  -13.9 °C 1010.4 in /  34212.1 hPa SSW 12.9 mph /  20.8 km/h 24.1 mph /  38.8 km/h 85 % 0.0 in /  0 mm
06:52 9.2 °F /  -12.7 °C 6.8 °F /  -14 °C 1010.4 in /  34212.1 hPa SW 9.7 mph /  15.6 km/h 22.5 mph /  36.2 km/h 85 % 0.0 in /  0 mm
06:57 9.2 °F /  -12.7 °C 6.8 °F /  -14 °C 1010.4 in /  34212.1 hPa SSW 12.9 mph /  20.8 km/h 22.5 mph /  36.2 km/h 85 % 0.0 in /  0 mm
07:02 9.2 °F /  -12.7 °C 6.8 °F /  -14 °C 1010.4 in /  34212.1 hPa SSW 14.5 mph /  23.3 km/h 20.9 mph /  33.6 km/h 85 % 0.0 in /  0 mm
07:12 9.2 °F /  -12.7 °C 6.8 °F /  -14 °C 1010.0 in /  34198.6 hPa SSW 12.9 mph /  20.8 km/h 20.9 mph /  33.6 km/h 85 % 0.0 in /  0 mm
07:17 9.2 °F /  -12.7 °C 6.8 °F /  -14 °C 1010.0 in /  34198.6 hPa South 12.9 mph /  20.8 km/h 20.9 mph /  33.6 km/h 85 % 0.0 in /  0 mm
07:22 9.3 °F /  -12.6 °C 6.9 °F /  -13.9 °C 1010.0 in /  34198.6 hPa SSW 16.1 mph /  25.9 km/h 20.9 mph /  33.6 km/h 85 % 0.0 in /  0 mm
07:27 9.2 °F /  -12.7 °C 6.8 °F /  -14 °C 1009.7 in /  34188.4 hPa SSW 12.9 mph /  20.8 km/h 20.9 mph /  33.6 km/h 85 % 0.0 in /  0 mm
07:32 9.2 °F /  -12.7 °C 6.8 °F /  -14 °C 1009.7 in /  34188.4 hPa SSW 9.7 mph /  15.6 km/h 20.9 mph /  33.6 km/h 85 % 0.0 in /  0 mm
07:42 9.2 °F /  -12.7 °C 6.8 °F /  -14 °C 1009.7 in /  34188.4 hPa SSW 8.0 mph /  12.9 km/h 20.9 mph /  33.6 km/h 85 % 0.0 in /  0 mm
07:47 9.2 °F /  -12.7 °C 6.6 °F /  -14.1 °C 1009.7 in /  34188.4 hPa South 6.4 mph /  10.3 km/h 16.1 mph /  25.9 km/h 84 % 0.0 in /  0 mm
07:52 9.2 °F /  -12.7 °C 6.8 °F /  -14 °C 1009.4 in /  34178.3 hPa South 9.7 mph /  15.6 km/h 16.1 mph /  25.9 km/h 85 % 0.0 in /  0 mm
07:57 9.1 °F /  -12.7 °C 6.7 °F /  -14.1 °C 1009.4 in /  34178.3 hPa South 11.3 mph /  18.2 km/h 14.5 mph /  23.3 km/h 85 % 0.0 in /  0 mm
08:02 9.1 °F /  -12.7 °C 6.7 °F /  -14.1 °C 1009.4 in /  34178.3 hPa SSW 4.8 mph /  7.7 km/h 14.5 mph /  23.3 km/h 85 % 0.0 in /  0 mm
08:12 9.2 °F /  -12.7 °C 6.6 °F /  -14.1 °C 1009.4 in /  34178.3 hPa SSW 8.0 mph /  12.9 km/h 16.1 mph /  25.9 km/h 84 % 0.0 in /  0 mm
08:17 9.3 °F /  -12.6 °C 6.7 °F /  -14.1 °C 1009.4 in /  34178.3 hPa SSW 8.0 mph /  12.9 km/h 19.3 mph /  31.1 km/h 84 % 0.0 in /  0 mm
08:22 9.3 °F /  -12.6 °C 6.6 °F /  -14.1 °C 1009.0 in /  34164.7 hPa SW 9.7 mph /  15.6 km/h 19.3 mph /  31.1 km/h 83 % 0.0 in /  0 mm
08:27 9.3 °F /  -12.6 °C 6.6 °F /  -14.1 °C 1009.0 in /  34164.7 hPa SSW 12.9 mph /  20.8 km/h 20.9 mph /  33.6 km/h 83 % 0.0 in /  0 mm
08:32 9.4 °F /  -12.6 °C 6.7 °F /  -14.1 °C 1008.7 in /  34154.6 hPa SSW 9.7 mph /  15.6 km/h 20.9 mph /  33.6 km/h 83 % 0.0 in /  0 mm
08:37 9.5 °F /  -12.5 °C 6.6 °F /  -14.1 °C 1008.7 in /  34154.6 hPa SSW 14.5 mph /  23.3 km/h 25.7 mph /  41.4 km/h 82 % 0.0 in /  0 mm
08:42 9.6 °F /  -12.4 °C 6.7 °F /  -14.1 °C 1008.7 in /  34154.6 hPa SSW 19.3 mph /  31.1 km/h 25.7 mph /  41.4 km/h 82 % 0.0 in /  0 mm
08:47 9.8 °F /  -12.3 °C 6.7 °F /  -14.1 °C 1008.7 in /  34154.6 hPa South 17.7 mph /  28.5 km/h 25.7 mph /  41.4 km/h 81 % 0.0 in /  0 mm
08:52 9.9 °F /  -12.3 °C 6.8 °F /  -14 °C 1008.7 in /  34154.6 hPa SW 12.9 mph /  20.8 km/h 25.7 mph /  41.4 km/h 81 % 0.0 in /  0 mm
09:02 10.1 °F /  -12.2 °C 6.8 °F /  -14 °C 1008.4 in /  34144.4 hPa SSW 17.7 mph /  28.5 km/h 25.7 mph /  41.4 km/h 80 % 0.0 in /  0 mm
09:12 10.2 °F /  -12.1 °C 6.5 °F /  -14.2 °C 1008.4 in /  34144.4 hPa SSW 12.9 mph /  20.8 km/h 29.0 mph /  46.7 km/h 78 % 0.0 in /  0 mm
09:17 10.2 °F /  -12.1 °C 6.5 °F /  -14.2 °C 1008.4 in /  34144.4 hPa SSE 22.5 mph /  36.2 km/h 29.0 mph /  46.7 km/h 78 % 0.0 in /  0 mm
09:22 10.2 °F /  -12.1 °C 6.3 °F /  -14.3 °C 1008.4 in /  34144.4 hPa South 17.7 mph /  28.5 km/h 29.0 mph /  46.7 km/h 77 % 0.0 in /  0 mm
09:27 10.3 °F /  -12.1 °C 6.3 °F /  -14.3 °C 1008.0 in /  34130.9 hPa South 22.5 mph /  36.2 km/h 29.0 mph /  46.7 km/h 76 % 0.0 in /  0 mm
09:32 10.3 °F /  -12.1 °C 6.4 °F /  -14.2 °C 1008.0 in /  34130.9 hPa SSW 6.4 mph /  10.3 km/h 29.0 mph /  46.7 km/h 77 % 0.0 in /  0 mm
09:37 10.4 °F /  -12 °C 6.5 °F /  -14.2 °C 1008.0 in /  34130.9 hPa SSW 12.9 mph /  20.8 km/h 29.0 mph /  46.7 km/h 77 % 0.0 in /  0 mm
09:42 10.5 °F /  -11.9 °C 6.4 °F /  -14.2 °C 1008.0 in /  34130.9 hPa South 11.3 mph /  18.2 km/h 29.0 mph /  46.7 km/h 76 % 0.0 in /  0 mm
09:47 10.5 °F /  -11.9 °C 6.4 °F /  -14.2 °C 1008.0 in /  34130.9 hPa SSW 12.9 mph /  20.8 km/h 24.1 mph /  38.8 km/h 76 % 0.0 in /  0 mm
09:52 10.6 °F /  -11.9 °C 6.5 °F /  -14.2 °C 1008.0 in /  34130.9 hPa SSW 8.0 mph /  12.9 km/h 24.1 mph /  38.8 km/h 76 % 0.0 in /  0 mm
09:57 10.6 °F /  -11.9 °C 6.5 °F /  -14.2 °C 1008.0 in /  34130.9 hPa South 12.9 mph /  20.8 km/h 24.1 mph /  38.8 km/h 76 % 0.0 in /  0 mm
10:02 10.7 °F /  -11.8 °C 6.6 °F /  -14.1 °C 1007.7 in /  34120.7 hPa SSW 14.5 mph /  23.3 km/h 24.1 mph /  38.8 km/h 76 % 0.0 in /  0 mm
10:12 10.7 °F /  -11.8 °C 6.6 °F /  -14.1 °C 1007.3 in /  34107.2 hPa SSE 16.1 mph /  25.9 km/h 24.1 mph /  38.8 km/h 76 % 0.0 in /  0 mm
10:17 10.7 °F /  -11.8 °C 6.4 °F /  -14.2 °C 1007.3 in /  34107.2 hPa SSE 8.0 mph /  12.9 km/h 27.4 mph /  44.1 km/h 75 % 0.0 in /  0 mm
10:22 10.7 °F /  -11.8 °C 6.3 °F /  -14.3 °C 1007.3 in /  34107.2 hPa SSW 19.3 mph /  31.1 km/h 27.4 mph /  44.1 km/h 74 % 0.0 in /  0 mm
10:27 10.7 °F /  -11.8 °C 6.4 °F /  -14.2 °C 1007.0 in /  34097 hPa SSW 9.7 mph /  15.6 km/h 30.6 mph /  49.2 km/h 75 % 0.0 in /  0 mm
10:32 10.7 °F /  -11.8 °C 6.4 °F /  -14.2 °C 1007.0 in /  34097 hPa SE 25.7 mph /  41.4 km/h 30.6 mph /  49.2 km/h 75 % 0.0 in /  0 mm
10:42 10.9 °F /  -11.7 °C 6.6 °F /  -14.1 °C 1006.7 in /  34086.9 hPa SE 11.3 mph /  18.2 km/h 30.6 mph /  49.2 km/h 75 % 0.0 in /  0 mm
10:47 10.9 °F /  -11.7 °C 6.6 °F /  -14.1 °C 1007.0 in /  34097 hPa SSW 19.3 mph /  31.1 km/h 35.4 mph /  57 km/h 75 % 0.0 in /  0 mm
10:52 10.9 °F /  -11.7 °C 6.6 °F /  -14.1 °C 1006.7 in /  34086.9 hPa South 16.1 mph /  25.9 km/h 35.4 mph /  57 km/h 75 % 0.0 in /  0 mm
11:02 11.0 °F /  -11.7 °C 6.7 °F /  -14.1 °C 1006.3 in /  34073.3 hPa South 12.9 mph /  20.8 km/h 30.6 mph /  49.2 km/h 75 % 0.0 in /  0 mm
11:12 11.1 °F /  -11.6 °C 6.8 °F /  -14 °C 1006.0 in /  34063.2 hPa SSW 19.3 mph /  31.1 km/h 30.6 mph /  49.2 km/h 75 % 0.0 in /  0 mm
11:17 11.1 °F /  -11.6 °C 6.8 °F /  -14 °C 1006.0 in /  34063.2 hPa SSW 17.7 mph /  28.5 km/h 35.4 mph /  57 km/h 75 % 0.0 in /  0 mm
11:22 11.2 °F /  -11.6 °C 7.1 °F /  -13.8 °C 1006.0 in /  34063.2 hPa SSE 25.7 mph /  41.4 km/h 35.4 mph /  57 km/h 76 % 0.0 in /  0 mm
11:27 11.2 °F /  -11.6 °C 7.1 °F /  -13.8 °C 1005.6 in /  34049.6 hPa SSE 16.1 mph /  25.9 km/h 38.6 mph /  62.1 km/h 76 % 0.0 in /  0 mm
11:32 11.3 °F /  -11.5 °C 7.2 °F /  -13.8 °C 1005.6 in /  34049.6 hPa South 14.5 mph /  23.3 km/h 38.6 mph /  62.1 km/h 76 % 0.0 in /  0 mm
11:42 11.9 °F /  -11.2 °C 7.4 °F /  -13.7 °C 1005.3 in /  34039.5 hPa South 30.6 mph /  49.2 km/h 38.6 mph /  62.1 km/h 74 % 0.0 in /  0 mm
11:47 12.1 °F /  -11.1 °C 7.8 °F /  -13.4 °C 1005.3 in /  34039.5 hPa SSW 20.9 mph /  33.6 km/h 35.4 mph /  57 km/h 75 % 0.0 in /  0 mm
11:52 12.2 °F /  -11 °C 7.7 °F /  -13.5 °C 1005.0 in /  34029.3 hPa SSW 14.5 mph /  23.3 km/h 35.4 mph /  57 km/h 74 % 0.0 in /  0 mm
11:57 12.2 °F /  -11 °C 7.7 °F /  -13.5 °C 1005.0 in /  34029.3 hPa SSW 25.7 mph /  41.4 km/h 43.4 mph /  69.8 km/h 74 % 0.0 in /  0 mm
12:02 12.3 °F /  -10.9 °C 7.8 °F /  -13.4 °C 1005.0 in /  34029.3 hPa SW 27.4 mph /  44.1 km/h 43.4 mph /  69.8 km/h 74 % 0.0 in /  0 mm
12:07 12.3 °F /  -10.9 °C 7.6 °F /  -13.6 °C 1005.0 in /  34029.3 hPa SSW 37.0 mph /  59.5 km/h 40.2 mph /  64.7 km/h 73 % 0.0 in /  0 mm
12:12 12.4 °F /  -10.9 °C 7.7 °F /  -13.5 °C 1005.0 in /  34029.3 hPa SSW 24.1 mph /  38.8 km/h 40.2 mph /  64.7 km/h 73 % 0.0 in /  0 mm
12:17 12.3 °F /  -10.9 °C 7.6 °F /  -13.6 °C 1005.0 in /  34029.3 hPa South 33.8 mph /  54.4 km/h 41.8 mph /  67.3 km/h 73 % 0.0 in /  0 mm
12:22 12.2 °F /  -11 °C 7.9 °F /  -13.4 °C 1005.0 in /  34029.3 hPa SSW 22.5 mph /  36.2 km/h 41.8 mph /  67.3 km/h 75 % 0.0 in /  0 mm
12:32 12.0 °F /  -11.1 °C 7.7 °F /  -13.5 °C 1005.0 in /  34029.3 hPa SSW 22.5 mph /  36.2 km/h 46.7 mph /  75.2 km/h 75 % 0.0 in /  0 mm
12:37 12.1 °F /  -11.1 °C 7.8 °F /  -13.4 °C 1004.6 in /  34015.8 hPa SSW 17.7 mph /  28.5 km/h 37.0 mph /  59.5 km/h 75 % 0.0 in /  0 mm
12:42 12.1 °F /  -11.1 °C 8.0 °F /  -13.3 °C 1004.6 in /  34015.8 hPa SSW 29.0 mph /  46.7 km/h 37.0 mph /  59.5 km/h 76 % 0.0 in /  0 mm
12:52 12.2 °F /  -11 °C 7.9 °F /  -13.4 °C 1004.3 in /  34005.6 hPa SSW 30.6 mph /  49.2 km/h 38.6 mph /  62.1 km/h 75 % 0.0 in /  0 mm
13:02 12.4 °F /  -10.9 °C 7.9 °F /  -13.4 °C 1003.9 in /  33992.1 hPa SW 29.0 mph /  46.7 km/h 38.6 mph /  62.1 km/h 74 % 0.0 in /  0 mm
13:12 12.7 °F /  -10.7 °C 8.2 °F /  -13.2 °C 1003.6 in /  33981.9 hPa SW 30.6 mph /  49.2 km/h 38.6 mph /  62.1 km/h 74 % 0.0 in /  0 mm
13:17 12.8 °F /  -10.7 °C 8.3 °F /  -13.2 °C 1003.6 in /  33981.9 hPa SSW 33.8 mph /  54.4 km/h 38.6 mph /  62.1 km/h 74 % 0.0 in /  0 mm
13:22 13.0 °F /  -10.6 °C 8.3 °F /  -13.2 °C 1003.6 in /  33981.9 hPa SSW 24.1 mph /  38.8 km/h 38.6 mph /  62.1 km/h 73 % 0.0 in /  0 mm
13:27 13.1 °F /  -10.5 °C 8.0 °F /  -13.3 °C 1003.3 in /  33971.7 hPa SW 30.6 mph /  49.2 km/h 38.6 mph /  62.1 km/h 71 % 0.0 in /  0 mm
13:32 13.3 °F /  -10.4 °C 7.9 °F /  -13.4 °C 1002.9 in /  33958.2 hPa SW 40.2 mph /  64.7 km/h 45.1 mph /  72.6 km/h 70 % 0.0 in /  0 mm
13:37 13.3 °F /  -10.4 °C 7.9 °F /  -13.4 °C 1002.9 in /  33958.2 hPa SW 38.6 mph /  62.1 km/h 51.5 mph /  82.9 km/h 70 % 0.0 in /  0 mm
13:42 13.4 °F /  -10.3 °C 7.6 °F /  -13.6 °C 1002.9 in /  33958.2 hPa SW 35.4 mph /  57 km/h 51.5 mph /  82.9 km/h 68 % 0.0 in /  0 mm
13:47 13.3 °F /  -10.4 °C 7.5 °F /  -13.6 °C 1002.9 in /  33958.2 hPa SW 32.2 mph /  51.8 km/h 51.5 mph /  82.9 km/h 68 % 0.0 in /  0 mm
13:52 13.3 °F /  -10.4 °C 7.3 °F /  -13.7 °C 1002.9 in /  33958.2 hPa SW 30.6 mph /  49.2 km/h 51.5 mph /  82.9 km/h 67 % 0.0 in /  0 mm
13:57 13.3 °F /  -10.4 °C 7.3 °F /  -13.7 °C 1002.6 in /  33948 hPa SW 38.6 mph /  62.1 km/h 51.5 mph /  82.9 km/h 67 % 0.0 in /  0 mm
14:02 13.3 °F /  -10.4 °C 7.3 °F /  -13.7 °C 1002.6 in /  33948 hPa SW 43.4 mph /  69.8 km/h 51.5 mph /  82.9 km/h 67 % 0.0 in /  0 mm
14:12 13.3 °F /  -10.4 °C 7.3 °F /  -13.7 °C 1002.3 in /  33937.9 hPa SW 37.0 mph /  59.5 km/h 49.9 mph /  80.3 km/h 67 % 0.0 in /  0 mm
14:17 13.3 °F /  -10.4 °C 7.5 °F /  -13.6 °C 1002.3 in /  33937.9 hPa SSW 24.1 mph /  38.8 km/h 49.9 mph /  80.3 km/h 68 % 0.0 in /  0 mm
14:22 13.4 °F /  -10.3 °C 7.4 °F /  -13.7 °C 1002.3 in /  33937.9 hPa SW 32.2 mph /  51.8 km/h 53.1 mph /  85.5 km/h 67 % 0.0 in /  0 mm
14:32 13.4 °F /  -10.3 °C 7.2 °F /  -13.8 °C 1001.9 in /  33924.3 hPa SW 30.6 mph /  49.2 km/h 53.1 mph /  85.5 km/h 66 % 0.0 in /  0 mm
14:42 13.4 °F /  -10.3 °C 7.4 °F /  -13.7 °C 1001.9 in /  33924.3 hPa SSW 30.6 mph /  49.2 km/h 51.5 mph /  82.9 km/h 67 % 0.0 in /  0 mm
14:47 13.3 °F /  -10.4 °C 7.5 °F /  -13.6 °C 1001.9 in /  33924.3 hPa SW 33.8 mph /  54.4 km/h 51.5 mph /  82.9 km/h 68 % 0.0 in /  0 mm
14:52 13.3 °F /  -10.4 °C 7.5 °F /  -13.6 °C 1001.9 in /  33924.3 hPa SW 35.4 mph /  57 km/h 51.5 mph /  82.9 km/h 68 % 0.0 in /  0 mm
14:57 13.2 °F /  -10.4 °C 7.2 °F /  -13.8 °C 1001.9 in /  33924.3 hPa SW 30.6 mph /  49.2 km/h 51.5 mph /  82.9 km/h 67 % 0.0 in /  0 mm
15:02 13.2 °F /  -10.4 °C 7.2 °F /  -13.8 °C 1001.9 in /  33924.3 hPa SSW 29.0 mph /  46.7 km/h 41.8 mph /  67.3 km/h 67 % 0.0 in /  0 mm
15:12 13.2 °F /  -10.4 °C 7.4 °F /  -13.7 °C 1001.6 in /  33914.2 hPa SW 41.8 mph /  67.3 km/h 59.5 mph /  95.8 km/h 68 % 0.0 in /  0 mm
15:17 13.2 °F /  -10.4 °C 7.4 °F /  -13.7 °C 1001.6 in /  33914.2 hPa SW 24.1 mph /  38.8 km/h 59.5 mph /  95.8 km/h 68 % 0.0 in /  0 mm
15:22 13.2 °F /  -10.4 °C 7.4 °F /  -13.7 °C 1001.6 in /  33914.2 hPa SW 38.6 mph /  62.1 km/h 57.9 mph /  93.2 km/h 68 % 0.0 in /  0 mm
15:32 13.2 °F /  -10.4 °C 7.4 °F /  -13.7 °C 1001.2 in /  33900.6 hPa SW 45.1 mph /  72.6 km/h 57.9 mph /  93.2 km/h 68 % 0.0 in /  0 mm
15:37 13.1 °F /  -10.5 °C 7.5 °F /  -13.6 °C 1001.2 in /  33900.6 hPa SSW 24.1 mph /  38.8 km/h 56.3 mph /  90.6 km/h 69 % 0.0 in /  0 mm
15:42 13.2 °F /  -10.4 °C 7.4 °F /  -13.7 °C 1000.9 in /  33890.5 hPa SW 29.0 mph /  46.7 km/h 56.3 mph /  90.6 km/h 68 % 0.0 in /  0 mm
15:47 13.2 °F /  -10.4 °C 7.4 °F /  -13.7 °C 1000.9 in /  33890.5 hPa SSW 24.1 mph /  38.8 km/h 56.3 mph /  90.6 km/h 68 % 0.0 in /  0 mm
15:52 13.1 °F /  -10.5 °C 7.5 °F /  -13.6 °C 1000.9 in /  33890.5 hPa SW 32.2 mph /  51.8 km/h 54.7 mph /  88 km/h 69 % 0.0 in /  0 mm
15:57 13.1 °F /  -10.5 °C 7.5 °F /  -13.6 °C 1000.9 in /  33890.5 hPa SW 29.0 mph /  46.7 km/h 54.7 mph /  88 km/h 69 % 0.0 in /  0 mm
16:02 13.1 °F /  -10.5 °C 7.5 °F /  -13.6 °C 1000.9 in /  33890.5 hPa SW 19.3 mph /  31.1 km/h 53.1 mph /  85.5 km/h 69 % 0.0 in /  0 mm
16:12 12.9 °F /  -10.6 °C 7.3 °F /  -13.7 °C 1000.6 in /  33880.3 hPa SSW 41.8 mph /  67.3 km/h 51.5 mph /  82.9 km/h 69 % 0.0 in /  0 mm
16:17 11.1 °F /  -11.6 °C 7.8 °F /  -13.4 °C 1001.9 in /  33924.3 hPa NW 38.6 mph /  62.1 km/h 53.1 mph /  85.5 km/h 80 % 0.5 in /  12.7 mm
16:22 9.6 °F /  -12.4 °C 7.2 °F /  -13.8 °C 1001.6 in /  33914.2 hPa WSW 32.2 mph /  51.8 km/h 70.8 mph /  113.9 km/h 85 % 0.5 in /  12.7 mm
16:32 9.3 °F /  -12.6 °C 7.1 °F /  -13.8 °C 1001.6 in /  33914.2 hPa WSW 45.1 mph /  72.6 km/h 70.8 mph /  113.9 km/h 86 % 1.8 in /  45.72 mm
16:37 9.2 °F /  -12.7 °C 7.1 °F /  -13.8 °C 1001.6 in /  33914.2 hPa WSW 20.9 mph /  33.6 km/h 61.1 mph /  98.3 km/h 87 % 1.8 in /  45.72 mm
16:42 9.2 °F /  -12.7 °C 7.0 °F /  -13.9 °C 1001.2 in /  33900.6 hPa WSW 35.4 mph /  57 km/h 57.9 mph /  93.2 km/h 86 % 1.8 in /  45.72 mm
16:52 9.6 °F /  -12.4 °C 6.7 °F /  -14.1 °C 1001.2 in /  33900.6 hPa SSW 20.9 mph /  33.6 km/h 56.3 mph /  90.6 km/h 82 % 2.0 in /  50.8 mm
16:57 9.7 °F /  -12.4 °C 7.0 °F /  -13.9 °C 1000.9 in /  33890.5 hPa SW 17.7 mph /  28.5 km/h 49.9 mph /  80.3 km/h 83 % 2.0 in /  50.8 mm
17:02 9.9 °F /  -12.3 °C 7.1 °F /  -13.8 °C 1000.9 in /  33890.5 hPa SW 22.5 mph /  36.2 km/h 49.9 mph /  80.3 km/h 83 % 2.0 in /  50.8 mm
17:12 10.1 °F /  -12.2 °C 7.5 °F /  -13.6 °C 1000.9 in /  33890.5 hPa SW 27.4 mph /  44.1 km/h 43.4 mph /  69.8 km/h 84 % 2.0 in /  50.8 mm
17:17 10.1 °F /  -12.2 °C 7.3 °F /  -13.7 °C 1000.9 in /  33890.5 hPa SSW 14.5 mph /  23.3 km/h 43.4 mph /  69.8 km/h 83 % 1.5 in /  38.1 mm
17:22 10.3 °F /  -12.1 °C 7.4 °F /  -13.7 °C 1000.9 in /  33890.5 hPa SW 37.0 mph /  59.5 km/h 38.6 mph /  62.1 km/h 82 % 1.5 in /  38.1 mm
17:27 10.4 °F /  -12 °C 7.3 °F /  -13.7 °C 1000.6 in /  33880.3 hPa WSW 37.0 mph /  59.5 km/h 43.4 mph /  69.8 km/h 81 % 0.3 in /  7.62 mm
17:32 10.4 °F /  -12 °C 7.5 °F /  -13.6 °C 1000.6 in /  33880.3 hPa SW 24.1 mph /  38.8 km/h 43.4 mph /  69.8 km/h 82 % 0.3 in /  7.62 mm
17:37 10.4 °F /  -12 °C 7.5 °F /  -13.6 °C 1000.9 in /  33890.5 hPa SW 24.1 mph /  38.8 km/h 48.3 mph /  77.7 km/h 82 % 0.0 in /  0 mm
17:42 10.5 °F /  -11.9 °C 7.4 °F /  -13.7 °C 1000.6 in /  33880.3 hPa SW 20.9 mph /  33.6 km/h 48.3 mph /  77.7 km/h 81 % 0.0 in /  0 mm
17:47 10.4 °F /  -12 °C 7.3 °F /  -13.7 °C 1000.6 in /  33880.3 hPa SSW 17.7 mph /  28.5 km/h 45.1 mph /  72.6 km/h 81 % 0.0 in /  0 mm
17:52 10.4 °F /  -12 °C 7.1 °F /  -13.8 °C 1000.6 in /  33880.3 hPa SW 22.5 mph /  36.2 km/h 53.1 mph /  85.5 km/h 80 % 0.0 in /  0 mm
18:02 10.4 °F /  -12 °C 7.1 °F /  -13.8 °C 1000.6 in /  33880.3 hPa West 12.9 mph /  20.8 km/h 53.1 mph /  85.5 km/h 80 % 0.0 in /  0 mm
18:12 10.4 °F /  -12 °C 6.9 °F /  -13.9 °C 1000.2 in /  33866.8 hPa SW 22.5 mph /  36.2 km/h 48.3 mph /  77.7 km/h 79 % 0.0 in /  0 mm
18:17 10.4 °F /  -12 °C 7.1 °F /  -13.8 °C 1000.2 in /  33866.8 hPa WSW 22.5 mph /  36.2 km/h 48.3 mph /  77.7 km/h 80 % 0.0 in /  0 mm
18:22 10.3 °F /  -12.1 °C 7.0 °F /  -13.9 °C 1000.2 in /  33866.8 hPa SW 24.1 mph /  38.8 km/h 48.3 mph /  77.7 km/h 80 % 0.0 in /  0 mm
18:32 10.3 °F /  -12.1 °C 7.0 °F /  -13.9 °C 1000.2 in /  33866.8 hPa SSW 16.1 mph /  25.9 km/h 35.4 mph /  57 km/h 80 % 0.0 in /  0 mm
18:37 10.3 °F /  -12.1 °C 6.8 °F /  -14 °C 1000.2 in /  33866.8 hPa SW 27.4 mph /  44.1 km/h 43.4 mph /  69.8 km/h 79 % 0.0 in /  0 mm
18:42 10.4 °F /  -12 °C 6.7 °F /  -14.1 °C 1000.2 in /  33866.8 hPa SW 20.9 mph /  33.6 km/h 43.4 mph /  69.8 km/h 78 % 0.0 in /  0 mm
18:52 10.3 °F /  -12.1 °C 6.6 °F /  -14.1 °C 1000.2 in /  33866.8 hPa SW 29.0 mph /  46.7 km/h 43.4 mph /  69.8 km/h 78 % 0.0 in /  0 mm
18:57 10.4 °F /  -12 °C 6.7 °F /  -14.1 °C 1000.6 in /  33880.3 hPa WSW 20.9 mph /  33.6 km/h 41.8 mph /  67.3 km/h 78 % 0.0 in /  0 mm
19:02 10.3 °F /  -12.1 °C 6.8 °F /  -14 °C 1000.9 in /  33890.5 hPa WSW 29.0 mph /  46.7 km/h 38.6 mph /  62.1 km/h 79 % 0.0 in /  0 mm
19:12 9.9 °F /  -12.3 °C 6.6 °F /  -14.1 °C 1000.9 in /  33890.5 hPa WSW 27.4 mph /  44.1 km/h 40.2 mph /  64.7 km/h 80 % 0.0 in /  0 mm
19:17 9.8 °F /  -12.3 °C 6.7 °F /  -14.1 °C 1000.6 in /  33880.3 hPa SW 17.7 mph /  28.5 km/h 56.3 mph /  90.6 km/h 81 % 0.0 in /  0 mm
19:22 9.5 °F /  -12.5 °C 6.6 °F /  -14.1 °C 1000.9 in /  33890.5 hPa SW 25.7 mph /  41.4 km/h 56.3 mph /  90.6 km/h 82 % 0.0 in /  0 mm
19:32 9.2 °F /  -12.7 °C 6.5 °F /  -14.2 °C 1001.2 in /  33900.6 hPa West 20.9 mph /  33.6 km/h 41.8 mph /  67.3 km/h 83 % 0.0 in /  0 mm
19:37 8.8 °F /  -12.9 °C 6.2 °F /  -14.3 °C 1000.9 in /  33890.5 hPa WSW 49.9 mph /  80.3 km/h 49.9 mph /  80.3 km/h 84 % 0.3 in /  7.62 mm
19:42 8.4 °F /  -13.1 °C 6.0 °F /  -14.4 °C 1000.6 in /  33880.3 hPa WSW 16.1 mph /  25.9 km/h 49.9 mph /  80.3 km/h 85 % 0.3 in /  7.62 mm
19:47 8.3 °F /  -13.2 °C 6.1 °F /  -14.4 °C 1000.6 in /  33880.3 hPa WSW 25.7 mph /  41.4 km/h 61.1 mph /  98.3 km/h 86 % 0.5 in /  12.7 mm
19:52 8.3 °F /  -13.2 °C 6.1 °F /  -14.4 °C 1000.6 in /  33880.3 hPa SW 19.3 mph /  31.1 km/h 61.1 mph /  98.3 km/h 86 % 0.5 in /  12.7 mm
19:57 8.4 °F /  -13.1 °C 6.0 °F /  -14.4 °C 1000.9 in /  33890.5 hPa West 16.1 mph /  25.9 km/h 45.1 mph /  72.6 km/h 85 % 0.5 in /  12.7 mm
20:02 8.4 °F /  -13.1 °C 6.0 °F /  -14.4 °C 1000.9 in /  33890.5 hPa WSW 17.7 mph /  28.5 km/h 45.1 mph /  72.6 km/h 85 % 0.5 in /  12.7 mm
20:12 8.3 °F /  -13.2 °C 6.1 °F /  -14.4 °C 1000.9 in /  33890.5 hPa SSW 14.5 mph /  23.3 km/h 40.2 mph /  64.7 km/h 86 % 0.5 in /  12.7 mm
20:22 8.0 °F /  -13.3 °C 6.3 °F /  -14.3 °C 1000.9 in /  33890.5 hPa West 19.3 mph /  31.1 km/h 41.8 mph /  67.3 km/h 89 % 0.5 in /  12.7 mm
20:27 8.0 °F /  -13.3 °C 6.3 °F /  -14.3 °C 1000.9 in /  33890.5 hPa WSW 20.9 mph /  33.6 km/h 35.4 mph /  57 km/h 89 % 0.8 in /  20.32 mm
20:32 7.9 °F /  -13.4 °C 6.4 °F /  -14.2 °C 1000.9 in /  33890.5 hPa WSW 19.3 mph /  31.1 km/h 40.2 mph /  64.7 km/h 90 % 0.8 in /  20.32 mm
20:42 7.8 °F /  -13.4 °C 6.4 °F /  -14.2 °C 1000.9 in /  33890.5 hPa SSW 19.3 mph /  31.1 km/h 40.2 mph /  64.7 km/h 91 % 1.0 in /  25.4 mm
20:47 7.8 °F /  -13.4 °C 6.4 °F /  -14.2 °C 1000.9 in /  33890.5 hPa West 19.3 mph /  31.1 km/h 40.2 mph /  64.7 km/h 91 % 1.3 in /  33.02 mm
20:52 7.3 °F /  -13.7 °C 5.4 °F /  -14.8 °C 1001.2 in /  33900.6 hPa West 22.5 mph /  36.2 km/h 40.2 mph /  64.7 km/h 88 % 1.3 in /  33.02 mm
20:57 6.9 °F /  -13.9 °C 4.9 °F /  -15.1 °C 1001.2 in /  33900.6 hPa WSW 38.6 mph /  62.1 km/h 53.1 mph /  85.5 km/h 87 % 1.5 in /  38.1 mm
21:02 6.6 °F /  -14.1 °C 4.8 °F /  -15.1 °C 1001.2 in /  33900.6 hPa WSW 30.6 mph /  49.2 km/h 53.1 mph /  85.5 km/h 88 % 1.5 in /  38.1 mm
21:12 6.1 °F /  -14.4 °C 4.4 °F /  -15.3 °C 1001.2 in /  33900.6 hPa West 27.4 mph /  44.1 km/h 56.3 mph /  90.6 km/h 89 % 1.5 in /  38.1 mm
21:17 6.1 °F /  -14.4 °C 4.6 °F /  -15.2 °C 1001.2 in /  33900.6 hPa West 16.1 mph /  25.9 km/h 51.5 mph /  82.9 km/h 90 % 1.8 in /  45.72 mm
21:22 6.0 °F /  -14.4 °C 4.5 °F /  -15.3 °C 1001.2 in /  33900.6 hPa WSW 8.0 mph /  12.9 km/h 41.8 mph /  67.3 km/h 90 % 1.8 in /  45.72 mm
21:27 6.0 °F /  -14.4 °C 4.5 °F /  -15.3 °C 1001.2 in /  33900.6 hPa West 14.5 mph /  23.3 km/h 37.0 mph /  59.5 km/h 90 % 1.5 in /  38.1 mm
21:32 6.0 °F /  -14.4 °C 4.5 °F /  -15.3 °C 1001.2 in /  33900.6 hPa SW 20.9 mph /  33.6 km/h 35.4 mph /  57 km/h 90 % 1.5 in /  38.1 mm
21:42 5.9 °F /  -14.5 °C 4.4 °F /  -15.3 °C 1001.6 in /  33914.2 hPa WSW 35.4 mph /  57 km/h 37.0 mph /  59.5 km/h 90 % 1.5 in /  38.1 mm
21:47 5.8 °F /  -14.6 °C 4.3 °F /  -15.4 °C 1001.6 in /  33914.2 hPa West 20.9 mph /  33.6 km/h 43.4 mph /  69.8 km/h 90 % 1.5 in /  38.1 mm
21:52 5.8 °F /  -14.6 °C 4.3 °F /  -15.4 °C 1001.6 in /  33914.2 hPa SW 11.3 mph /  18.2 km/h 43.4 mph /  69.8 km/h 90 % 1.5 in /  38.1 mm
21:57 5.7 °F /  -14.6 °C 4.2 °F /  -15.4 °C 1001.9 in /  33924.3 hPa West 25.7 mph /  41.4 km/h 43.4 mph /  69.8 km/h 90 % 1.3 in /  33.02 mm
22:02 5.7 °F /  -14.6 °C 4.2 °F /  -15.4 °C 1001.9 in /  33924.3 hPa West 16.1 mph /  25.9 km/h 38.6 mph /  62.1 km/h 90 % 1.3 in /  33.02 mm
22:07 5.7 °F /  -14.6 °C 4.0 °F /  -15.6 °C 1001.9 in /  33924.3 hPa WSW 22.5 mph /  36.2 km/h 38.6 mph /  62.1 km/h 89 % 1.5 in /  38.1 mm
22:12 5.6 °F /  -14.7 °C 3.9 °F /  -15.6 °C 1002.3 in /  33937.9 hPa West 29.0 mph /  46.7 km/h 38.6 mph /  62.1 km/h 89 % 1.5 in /  38.1 mm
22:17 5.6 °F /  -14.7 °C 4.1 °F /  -15.5 °C 1001.9 in /  33924.3 hPa WSW 17.7 mph /  28.5 km/h 40.2 mph /  64.7 km/h 90 % 1.8 in /  45.72 mm
22:22 5.6 °F /  -14.7 °C 3.9 °F /  -15.6 °C 1001.9 in /  33924.3 hPa SW 22.5 mph /  36.2 km/h 40.2 mph /  64.7 km/h 89 % 1.8 in /  45.72 mm
22:32 5.5 °F /  -14.7 °C 3.8 °F /  -15.7 °C 1001.6 in /  33914.2 hPa SW 24.1 mph /  38.8 km/h 40.2 mph /  64.7 km/h 89 % 2.0 in /  50.8 mm
22:37 5.5 °F /  -14.7 °C 3.8 °F /  -15.7 °C 1001.6 in /  33914.2 hPa SW 30.6 mph /  49.2 km/h 40.2 mph /  64.7 km/h 89 % 1.8 in /  45.72 mm
22:42 5.5 °F /  -14.7 °C 3.8 °F /  -15.7 °C 1001.6 in /  33914.2 hPa SW 19.3 mph /  31.1 km/h 40.2 mph /  64.7 km/h 89 % 1.8 in /  45.72 mm
22:52 5.6 °F /  -14.7 °C 3.8 °F /  -15.7 °C 1001.2 in /  33900.6 hPa SW 19.3 mph /  31.1 km/h 37.0 mph /  59.5 km/h 88 % 1.5 in /  38.1 mm
22:57 5.6 °F /  -14.7 °C 3.8 °F /  -15.7 °C 1001.2 in /  33900.6 hPa SW 19.3 mph /  31.1 km/h 32.2 mph /  51.8 km/h 88 % 1.3 in /  33.02 mm
23:02 5.6 °F /  -14.7 °C 3.6 °F /  -15.8 °C 1001.2 in /  33900.6 hPa WSW 20.9 mph /  33.6 km/h 33.8 mph /  54.4 km/h 87 % 1.3 in /  33.02 mm
23:12 5.6 °F /  -14.7 °C 3.6 °F /  -15.8 °C 1001.2 in /  33900.6 hPa WSW 17.7 mph /  28.5 km/h 33.8 mph /  54.4 km/h 87 % 0.8 in /  20.32 mm
23:17 5.6 °F /  -14.7 °C 3.6 °F /  -15.8 °C 1001.2 in /  33900.6 hPa SSW 16.1 mph /  25.9 km/h 33.8 mph /  54.4 km/h 87 % 0.3 in /  7.62 mm
23:22 5.7 °F /  -14.6 °C 3.5 °F /  -15.8 °C 1001.2 in /  33900.6 hPa SW 16.1 mph /  25.9 km/h 33.8 mph /  54.4 km/h 86 % 0.3 in /  7.62 mm
23:27 5.7 °F /  -14.6 °C 3.5 °F /  -15.8 °C 1000.9 in /  33890.5 hPa SW 20.9 mph /  33.6 km/h 30.6 mph /  49.2 km/h 86 % 0.0 in /  0 mm
23:32 5.7 °F /  -14.6 °C 3.5 °F /  -15.8 °C 1000.9 in /  33890.5 hPa SW 25.7 mph /  41.4 km/h 30.6 mph /  49.2 km/h 86 % 0.0 in /  0 mm
23:37 5.7 °F /  -14.6 °C 3.5 °F /  -15.8 °C 1001.2 in /  33900.6 hPa SSW 19.3 mph /  31.1 km/h 33.8 mph /  54.4 km/h 86 % 0.0 in /  0 mm
23:42 5.8 °F /  -14.6 °C 3.5 °F /  -15.8 °C 1001.2 in /  33900.6 hPa SW 20.9 mph /  33.6 km/h 33.8 mph /  54.4 km/h 85 % 0.0 in /  0 mm
23:52 5.8 °F /  -14.6 °C 3.5 °F /  -15.8 °C 1001.2 in /  33900.6 hPa SSW 16.1 mph /  25.9 km/h 32.2 mph /  51.8 km/h 85 % 0.0 in /  0 mm
23:57 5.8 °F /  -14.6 °C 3.3 °F /  -15.9 °C 1000.9 in /  33890.5 hPa WSW 19.3 mph /  31.1 km/h 32.2 mph /  51.8 km/h 84 % 0.0 in /  0 mm
Meteo18
Compliments of Weather Underground - 4 mb

Script developed by  Jim McMurry - jmcmurry@mwt.net Adapted for the template by  Wim van der Kuil - Leuven-Template.eu

You find our weather info also at:

European Weather Network

Weather Underground

Equipment we use:

Weather-station
Davis Vue

Weather-program
Meteobridge

Weather-server
Raspberry PI 2 B+

Provider
1 and 1

Davis Vue

Meteobridge

Raspberry PI 2 B+

1 and 1